sensor_id;sensor_type;location;lat;lon;timestamp;P1;durP1;ratioP1;P2;durP2;ratioP2
34647;SDS011;20858;53.622;9.802;2022-09-25T00:01:36;7.88;;;6.43;;
34647;SDS011;20858;53.622;9.802;2022-09-25T00:04:02;6.68;;;5.38;;
34647;SDS011;20858;53.622;9.802;2022-09-25T00:06:27;6.03;;;5.43;;
34647;SDS011;20858;53.622;9.802;2022-09-25T00:08:54;17.40;;;5.35;;
34647;SDS011;20858;53.622;9.802;2022-09-25T00:11:21;8.10;;;6.28;;
34647;SDS011;20858;53.622;9.802;2022-09-25T00:13:49;11.48;;;6.88;;
34647;SDS011;20858;53.622;9.802;2022-09-25T00:16:16;7.07;;;6.45;;
34647;SDS011;20858;53.622;9.802;2022-09-25T00:18:44;10.75;;;6.88;;
34647;SDS011;20858;53.622;9.802;2022-09-25T00:21:29;7.07;;;6.10;;
34647;SDS011;20858;53.622;9.802;2022-09-25T00:23:56;9.25;;;5.72;;
34647;SDS011;20858;53.622;9.802;2022-09-25T00:26:24;14.25;;;7.18;;
34647;SDS011;20858;53.622;9.802;2022-09-25T00:28:51;10.43;;;6.78;;
34647;SDS011;20858;53.622;9.802;2022-09-25T00:31:17;13.55;;;6.35;;
34647;SDS011;20858;53.622;9.802;2022-09-25T00:33:51;6.13;;;5.63;;
34647;SDS011;20858;53.622;9.802;2022-09-25T00:36:18;11.70;;;7.43;;
34647;SDS011;20858;53.622;9.802;2022-09-25T00:38:44;14.77;;;8.35;;
34647;SDS011;20858;53.622;9.802;2022-09-25T00:41:12;10.02;;;8.82;;
34647;SDS011;20858;53.622;9.802;2022-09-25T00:46:12;7.78;;;6.95;;
34647;SDS011;20858;53.622;9.802;2022-09-25T00:51:32;9.07;;;6.20;;
34647;SDS011;20858;53.622;9.802;2022-09-25T00:54:16;8.30;;;6.50;;
34647;SDS011;20858;53.622;9.802;2022-09-25T00:56:51;8.73;;;7.82;;
34647;SDS011;20858;53.622;9.802;2022-09-25T00:59:20;7.70;;;6.60;;
34647;SDS011;20858;53.622;9.802;2022-09-25T01:01:49;6.72;;;5.65;;
34647;SDS011;20858;53.622;9.802;2022-09-25T01:04:15;7.53;;;6.45;;
34647;SDS011;20858;53.622;9.802;2022-09-25T01:06:42;7.05;;;6.05;;
34647;SDS011;20858;53.622;9.802;2022-09-25T01:09:10;7.20;;;6.53;;
34647;SDS011;20858;53.622;9.802;2022-09-25T01:11:35;8.05;;;7.25;;
34647;SDS011;20858;53.622;9.802;2022-09-25T01:14:02;8.68;;;6.25;;
34647;SDS011;20858;53.622;9.802;2022-09-25T01:21:52;6.10;;;5.50;;
34647;SDS011;20858;53.622;9.802;2022-09-25T01:32:33;5.40;;;4.90;;
34647;SDS011;20858;53.622;9.802;2022-09-25T01:41:17;24.77;;;5.80;;
34647;SDS011;20858;53.622;9.802;2022-09-25T01:43:48;8.95;;;5.20;;
34647;SDS011;20858;53.622;9.802;2022-09-25T01:46:22;5.28;;;4.72;;
34647;SDS011;20858;53.622;9.802;2022-09-25T01:48:54;4.53;;;4.23;;
34647;SDS011;20858;53.622;9.802;2022-09-25T01:51:35;5.10;;;4.65;;
34647;SDS011;20858;53.622;9.802;2022-09-25T01:54:15;6.90;;;5.65;;
34647;SDS011;20858;53.622;9.802;2022-09-25T01:59:38;5.13;;;4.68;;
34647;SDS011;20858;53.622;9.802;2022-09-25T02:02:09;6.10;;;4.80;;
34647;SDS011;20858;53.622;9.802;2022-09-25T02:04:44;6.85;;;4.78;;
34647;SDS011;20858;53.622;9.802;2022-09-25T02:07:16;5.40;;;4.47;;
34647;SDS011;20858;53.622;9.802;2022-09-25T02:09:48;9.95;;;5.35;;
34647;SDS011;20858;53.622;9.802;2022-09-25T02:14:58;4.88;;;4.35;;
34647;SDS011;20858;53.622;9.802;2022-09-25T02:17:37;5.28;;;4.63;;
34647;SDS011;20858;53.622;9.802;2022-09-25T02:20:34;4.72;;;4.30;;
34647;SDS011;20858;53.622;9.802;2022-09-25T02:23:07;4.68;;;4.28;;
34647;SDS011;20858;53.622;9.802;2022-09-25T02:25:38;6.03;;;4.15;;
34647;SDS011;20858;53.622;9.802;2022-09-25T02:28:08;4.03;;;3.67;;
34647;SDS011;20858;53.622;9.802;2022-09-25T02:30:33;4.55;;;4.15;;
34647;SDS011;20858;53.622;9.802;2022-09-25T02:32:59;4.47;;;4.03;;
34647;SDS011;20858;53.622;9.802;2022-09-25T02:35:24;4.88;;;4.40;;
34647;SDS011;20858;53.622;9.802;2022-09-25T02:37:50;8.55;;;5.05;;
34647;SDS011;20858;53.622;9.802;2022-09-25T02:40:19;8.07;;;5.05;;
34647;SDS011;20858;53.622;9.802;2022-09-25T02:43:02;5.40;;;4.63;;
34647;SDS011;20858;53.622;9.802;2022-09-25T02:45:40;4.65;;;3.72;;
34647;SDS011;20858;53.622;9.802;2022-09-25T02:50:53;4.50;;;3.55;;
34647;SDS011;20858;53.622;9.802;2022-09-25T02:53:48;4.90;;;4.32;;
34647;SDS011;20858;53.622;9.802;2022-09-25T02:56:32;4.93;;;3.80;;
34647;SDS011;20858;53.622;9.802;2022-09-25T02:59:13;3.60;;;3.30;;
34647;SDS011;20858;53.622;9.802;2022-09-25T03:01:43;5.38;;;3.53;;
34647;SDS011;20858;53.622;9.802;2022-09-25T03:04:11;5.78;;;4.07;;
34647;SDS011;20858;53.622;9.802;2022-09-25T03:06:38;4.55;;;3.97;;
34647;SDS011;20858;53.622;9.802;2022-09-25T03:09:04;6.40;;;4.22;;
34647;SDS011;20858;53.622;9.802;2022-09-25T03:11:34;5.60;;;3.97;;
34647;SDS011;20858;53.622;9.802;2022-09-25T03:14:07;4.18;;;3.65;;
34647;SDS011;20858;53.622;9.802;2022-09-25T03:16:33;8.32;;;4.95;;
34647;SDS011;20858;53.622;9.802;2022-09-25T03:19:05;6.45;;;4.43;;
34647;SDS011;20858;53.622;9.802;2022-09-25T03:21:31;3.72;;;3.42;;
34647;SDS011;20858;53.622;9.802;2022-09-25T03:23:57;4.45;;;4.00;;
34647;SDS011;20858;53.622;9.802;2022-09-25T03:26:23;4.22;;;3.83;;
34647;SDS011;20858;53.622;9.802;2022-09-25T03:28:52;4.72;;;4.05;;
34647;SDS011;20858;53.622;9.802;2022-09-25T03:31:18;4.35;;;3.58;;
34647;SDS011;20858;53.622;9.802;2022-09-25T03:33:44;5.60;;;3.72;;
34647;SDS011;20858;53.622;9.802;2022-09-25T03:36:11;6.28;;;4.15;;
34647;SDS011;20858;53.622;9.802;2022-09-25T03:38:43;4.80;;;3.30;;
34647;SDS011;20858;53.622;9.802;2022-09-25T03:41:10;3.95;;;3.40;;
34647;SDS011;20858;53.622;9.802;2022-09-25T03:43:39;4.30;;;3.67;;
34647;SDS011;20858;53.622;9.802;2022-09-25T03:46:07;3.80;;;3.47;;
34647;SDS011;20858;53.622;9.802;2022-09-25T03:48:34;4.18;;;3.78;;
34647;SDS011;20858;53.622;9.802;2022-09-25T03:51:00;3.72;;;2.97;;
34647;SDS011;20858;53.622;9.802;2022-09-25T03:53:27;4.07;;;3.55;;
34647;SDS011;20858;53.622;9.802;2022-09-25T03:55:57;4.13;;;3.75;;
34647;SDS011;20858;53.622;9.802;2022-09-25T03:58:25;5.45;;;3.47;;
34647;SDS011;20858;53.622;9.802;2022-09-25T04:00:50;4.63;;;3.28;;
34647;SDS011;20858;53.622;9.802;2022-09-25T04:03:22;6.82;;;3.63;;
34647;SDS011;20858;53.622;9.802;2022-09-25T04:05:54;3.75;;;3.45;;
34647;SDS011;20858;53.622;9.802;2022-09-25T04:08:23;4.18;;;3.00;;
34647;SDS011;20858;53.622;9.802;2022-09-25T04:10:51;4.30;;;3.53;;
34647;SDS011;20858;53.622;9.802;2022-09-25T04:13:20;3.22;;;2.45;;
34647;SDS011;20858;53.622;9.802;2022-09-25T04:15:49;3.58;;;3.22;;
34647;SDS011;20858;53.622;9.802;2022-09-25T04:18:15;4.82;;;3.42;;
34647;SDS011;20858;53.622;9.802;2022-09-25T04:20:40;3.00;;;2.70;;
34647;SDS011;20858;53.622;9.802;2022-09-25T04:23:06;2.47;;;2.25;;
34647;SDS011;20858;53.622;9.802;2022-09-25T04:25:31;3.15;;;2.88;;
34647;SDS011;20858;53.622;9.802;2022-09-25T04:27:57;4.22;;;3.33;;
34647;SDS011;20858;53.622;9.802;2022-09-25T04:30:23;22.00;;;3.15;;
34647;SDS011;20858;53.622;9.802;2022-09-25T04:32:50;2.78;;;2.58;;
34647;SDS011;20858;53.622;9.802;2022-09-25T04:35:34;2.78;;;2.28;;
34647;SDS011;20858;53.622;9.802;2022-09-25T04:37:59;5.95;;;3.30;;
34647;SDS011;20858;53.622;9.802;2022-09-25T04:40:26;3.20;;;2.83;;
34647;SDS011;20858;53.622;9.802;2022-09-25T04:42:58;2.83;;;2.10;;
34647;SDS011;20858;53.622;9.802;2022-09-25T04:45:25;5.95;;;2.58;;
34647;SDS011;20858;53.622;9.802;2022-09-25T04:47:52;5.22;;;2.75;;
34647;SDS011;20858;53.622;9.802;2022-09-25T04:50:18;4.88;;;2.65;;
34647;SDS011;20858;53.622;9.802;2022-09-25T04:52:44;4.45;;;2.55;;
34647;SDS011;20858;53.622;9.802;2022-09-25T04:55:09;3.20;;;2.90;;
34647;SDS011;20858;53.622;9.802;2022-09-25T04:57:35;2.85;;;2.33;;
34647;SDS011;20858;53.622;9.802;2022-09-25T05:00:01;3.75;;;2.30;;
34647;SDS011;20858;53.622;9.802;2022-09-25T05:02:26;2.38;;;1.63;;
34647;SDS011;20858;53.622;9.802;2022-09-25T05:04:52;2.95;;;2.38;;
34647;SDS011;20858;53.622;9.802;2022-09-25T05:07:18;2.45;;;1.92;;
34647;SDS011;20858;53.622;9.802;2022-09-25T05:09:43;3.63;;;2.30;;
34647;SDS011;20858;53.622;9.802;2022-09-25T05:12:11;1.42;;;1.33;;
34647;SDS011;20858;53.622;9.802;2022-09-25T05:14:36;2.40;;;2.13;;
34647;SDS011;20858;53.622;9.802;2022-09-25T05:17:06;1.83;;;1.73;;
34647;SDS011;20858;53.622;9.802;2022-09-25T05:19:32;2.25;;;1.52;;
34647;SDS011;20858;53.622;9.802;2022-09-25T05:21:59;1.73;;;1.63;;
34647;SDS011;20858;53.622;9.802;2022-09-25T05:24:24;2.90;;;2.15;;
34647;SDS011;20858;53.622;9.802;2022-09-25T05:26:49;3.40;;;1.30;;
34647;SDS011;20858;53.622;9.802;2022-09-25T05:29:15;1.92;;;1.40;;
34647;SDS011;20858;53.622;9.802;2022-09-25T05:31:40;1.50;;;1.40;;
34647;SDS011;20858;53.622;9.802;2022-09-25T05:34:10;1.73;;;1.63;;
34647;SDS011;20858;53.622;9.802;2022-09-25T05:36:36;2.05;;;1.40;;
34647;SDS011;20858;53.622;9.802;2022-09-25T05:39:01;1.63;;;1.52;;
34647;SDS011;20858;53.622;9.802;2022-09-25T05:41:29;2.03;;;1.63;;
34647;SDS011;20858;53.622;9.802;2022-09-25T05:43:58;1.40;;;1.30;;
34647;SDS011;20858;53.622;9.802;2022-09-25T05:46:24;1.77;;;1.67;;
34647;SDS011;20858;53.622;9.802;2022-09-25T05:48:49;1.13;;;1.00;;
34647;SDS011;20858;53.622;9.802;2022-09-25T05:51:15;1.10;;;1.00;;
34647;SDS011;20858;53.622;9.802;2022-09-25T05:53:40;1.40;;;1.30;;
34647;SDS011;20858;53.622;9.802;2022-09-25T05:56:06;1.05;;;0.93;;
34647;SDS011;20858;53.622;9.802;2022-09-25T05:58:34;1.75;;;1.65;;
34647;SDS011;20858;53.622;9.802;2022-09-25T06:01:00;1.30;;;1.20;;
34647;SDS011;20858;53.622;9.802;2022-09-25T06:03:27;1.05;;;0.95;;
34647;SDS011;20858;53.622;9.802;2022-09-25T06:05:59;1.10;;;1.10;;
34647;SDS011;20858;53.622;9.802;2022-09-25T06:08:25;1.48;;;1.25;;
34647;SDS011;20858;53.622;9.802;2022-09-25T06:10:53;4.85;;;1.55;;
34647;SDS011;20858;53.622;9.802;2022-09-25T06:13:18;1.45;;;1.25;;
34647;SDS011;20858;53.622;9.802;2022-09-25T06:15:45;3.45;;;1.73;;
34647;SDS011;20858;53.622;9.802;2022-09-25T06:18:12;1.45;;;1.35;;
34647;SDS011;20858;53.622;9.802;2022-09-25T06:20:37;1.40;;;1.30;;
34647;SDS011;20858;53.622;9.802;2022-09-25T06:23:03;1.83;;;1.10;;
34647;SDS011;20858;53.622;9.802;2022-09-25T06:25:29;1.10;;;1.00;;
34647;SDS011;20858;53.622;9.802;2022-09-25T06:27:57;1.48;;;1.00;;
34647;SDS011;20858;53.622;9.802;2022-09-25T06:30:25;1.30;;;1.20;;
34647;SDS011;20858;53.622;9.802;2022-09-25T06:32:58;1.33;;;1.08;;
34647;SDS011;20858;53.622;9.802;2022-09-25T06:35:28;1.70;;;1.00;;
34647;SDS011;20858;53.622;9.802;2022-09-25T06:37:57;2.15;;;1.05;;
34647;SDS011;20858;53.622;9.802;2022-09-25T06:40:24;6.93;;;1.35;;
34647;SDS011;20858;53.622;9.802;2022-09-25T06:43:10;1.00;;;1.00;;
34647;SDS011;20858;53.622;9.802;2022-09-25T06:45:38;1.42;;;0.98;;
34647;SDS011;20858;53.622;9.802;2022-09-25T06:53:10;0.93;;;0.93;;
34647;SDS011;20858;53.622;9.802;2022-09-25T06:55:36;1.83;;;1.73;;
34647;SDS011;20858;53.622;9.802;2022-09-25T06:58:03;1.80;;;1.65;;
34647;SDS011;20858;53.622;9.802;2022-09-25T07:00:30;1.17;;;1.08;;
34647;SDS011;20858;53.622;9.802;2022-09-25T07:02:58;1.10;;;0.93;;
34647;SDS011;20858;53.622;9.802;2022-09-25T07:05:43;1.42;;;1.25;;
34647;SDS011;20858;53.622;9.802;2022-09-25T07:08:11;1.20;;;1.10;;
34647;SDS011;20858;53.622;9.802;2022-09-25T07:10:38;1.13;;;1.05;;
34647;SDS011;20858;53.622;9.802;2022-09-25T07:13:04;1.08;;;1.08;;
34647;SDS011;20858;53.622;9.802;2022-09-25T07:15:30;2.67;;;1.33;;
34647;SDS011;20858;53.622;9.802;2022-09-25T07:17:55;1.52;;;1.42;;
34647;SDS011;20858;53.622;9.802;2022-09-25T07:20:21;1.70;;;1.08;;
34647;SDS011;20858;53.622;9.802;2022-09-25T07:22:46;1.77;;;1.52;;
34647;SDS011;20858;53.622;9.802;2022-09-25T07:25:12;1.48;;;1.38;;
34647;SDS011;20858;53.622;9.802;2022-09-25T07:27:40;1.10;;;1.00;;
34647;SDS011;20858;53.622;9.802;2022-09-25T07:30:06;0.88;;;0.88;;
34647;SDS011;20858;53.622;9.802;2022-09-25T07:32:34;1.25;;;1.10;;
34647;SDS011;20858;53.622;9.802;2022-09-25T07:35:00;0.95;;;0.90;;
34647;SDS011;20858;53.622;9.802;2022-09-25T07:37:27;1.58;;;1.30;;
34647;SDS011;20858;53.622;9.802;2022-09-25T07:39:52;1.20;;;1.10;;
34647;SDS011;20858;53.622;9.802;2022-09-25T07:42:18;1.67;;;1.42;;
34647;SDS011;20858;53.622;9.802;2022-09-25T07:44:46;1.35;;;1.25;;
34647;SDS011;20858;53.622;9.802;2022-09-25T07:47:11;2.20;;;1.23;;
34647;SDS011;20858;53.622;9.802;2022-09-25T07:49:39;8.18;;;1.52;;
34647;SDS011;20858;53.622;9.802;2022-09-25T07:52:07;3.13;;;2.13;;
34647;SDS011;20858;53.622;9.802;2022-09-25T07:54:32;2.05;;;1.90;;
34647;SDS011;20858;53.622;9.802;2022-09-25T07:57:01;4.72;;;1.90;;
34647;SDS011;20858;53.622;9.802;2022-09-25T07:59:27;2.92;;;1.88;;
34647;SDS011;20858;53.622;9.802;2022-09-25T08:01:52;1.75;;;1.65;;
34647;SDS011;20858;53.622;9.802;2022-09-25T08:04:17;1.92;;;1.65;;
34647;SDS011;20858;53.622;9.802;2022-09-25T08:06:43;2.60;;;1.42;;
34647;SDS011;20858;53.622;9.802;2022-09-25T08:09:09;1.98;;;1.65;;
34647;SDS011;20858;53.622;9.802;2022-09-25T08:11:35;10.77;;;2.38;;
34647;SDS011;20858;53.622;9.802;2022-09-25T08:14:01;4.88;;;1.27;;
34647;SDS011;20858;53.622;9.802;2022-09-25T08:16:27;2.80;;;1.77;;
34647;SDS011;20858;53.622;9.802;2022-09-25T08:18:52;1.17;;;1.08;;
34647;SDS011;20858;53.622;9.802;2022-09-25T08:21:18;2.15;;;1.80;;
34647;SDS011;20858;53.622;9.802;2022-09-25T08:23:48;1.73;;;1.17;;
34647;SDS011;20858;53.622;9.802;2022-09-25T08:26:15;3.53;;;1.63;;
34647;SDS011;20858;53.622;9.802;2022-09-25T08:28:41;4.47;;;2.72;;
34647;SDS011;20858;53.622;9.802;2022-09-25T08:31:06;3.88;;;2.47;;
34647;SDS011;20858;53.622;9.802;2022-09-25T08:33:32;5.13;;;3.70;;
34647;SDS011;20858;53.622;9.802;2022-09-25T08:36:01;4.43;;;3.38;;
34647;SDS011;20858;53.622;9.802;2022-09-25T08:38:29;5.47;;;4.18;;
34647;SDS011;20858;53.622;9.802;2022-09-25T08:43:33;18.77;;;6.97;;
34647;SDS011;20858;53.622;9.802;2022-09-25T08:46:02;19.45;;;9.02;;
34647;SDS011;20858;53.622;9.802;2022-09-25T08:48:53;16.75;;;8.32;;
34647;SDS011;20858;53.622;9.802;2022-09-25T08:51:27;9.63;;;7.60;;
34647;SDS011;20858;53.622;9.802;2022-09-25T08:53:54;10.25;;;7.80;;
34647;SDS011;20858;53.622;9.802;2022-09-25T08:56:20;8.32;;;6.25;;
34647;SDS011;20858;53.622;9.802;2022-09-25T08:58:49;6.72;;;5.10;;
34647;SDS011;20858;53.622;9.802;2022-09-25T09:01:45;8.02;;;5.05;;
34647;SDS011;20858;53.622;9.802;2022-09-25T09:06:52;6.38;;;4.57;;
34647;SDS011;20858;53.622;9.802;2022-09-25T09:09:23;9.23;;;4.88;;
34647;SDS011;20858;53.622;9.802;2022-09-25T09:14:30;9.25;;;3.78;;
34647;SDS011;20858;53.622;9.802;2022-09-25T09:17:04;5.20;;;3.17;;
34647;SDS011;20858;53.622;9.802;2022-09-25T09:19:58;5.75;;;3.53;;
34647;SDS011;20858;53.622;9.802;2022-09-25T09:22:36;4.30;;;3.65;;
34647;SDS011;20858;53.622;9.802;2022-09-25T09:28:24;5.45;;;3.17;;
34647;SDS011;20858;53.622;9.802;2022-09-25T09:31:13;4.70;;;3.65;;
34647;SDS011;20858;53.622;9.802;2022-09-25T09:44:17;16.98;;;9.35;;
34647;SDS011;20858;53.622;9.802;2022-09-25T09:49:36;8.85;;;7.00;;
34647;SDS011;20858;53.622;9.802;2022-09-25T09:52:20;21.30;;;7.18;;
34647;SDS011;20858;53.622;9.802;2022-09-25T09:57:32;18.63;;;6.30;;
34647;SDS011;20858;53.622;9.802;2022-09-25T10:00:16;7.80;;;6.00;;
34647;SDS011;20858;53.622;9.802;2022-09-25T10:02:57;5.65;;;4.65;;
34647;SDS011;20858;53.622;9.802;2022-09-25T10:07:58;7.45;;;5.32;;
34647;SDS011;20858;53.622;9.802;2022-09-25T10:10:27;7.38;;;5.63;;
34647;SDS011;20858;53.622;9.802;2022-09-25T10:13:18;9.82;;;4.90;;
34647;SDS011;20858;53.622;9.802;2022-09-25T10:15:57;6.50;;;4.15;;
34647;SDS011;20858;53.622;9.802;2022-09-25T10:18:40;8.07;;;3.60;;
34647;SDS011;20858;53.622;9.802;2022-09-25T10:21:15;11.88;;;3.22;;
34647;SDS011;20858;53.622;9.802;2022-09-25T10:26:23;4.05;;;3.47;;
34647;SDS011;20858;53.622;9.802;2022-09-25T10:29:47;5.32;;;3.83;;
34647;SDS011;20858;53.622;9.802;2022-09-25T10:32:01;6.55;;;3.63;;
34647;SDS011;20858;53.622;9.802;2022-09-25T10:34:28;11.07;;;2.65;;
34647;SDS011;20858;53.622;9.802;2022-09-25T10:36:55;3.03;;;2.70;;
34647;SDS011;20858;53.622;9.802;2022-09-25T10:39:26;6.55;;;4.20;;
34647;SDS011;20858;53.622;9.802;2022-09-25T10:42:27;6.75;;;2.95;;
34647;SDS011;20858;53.622;9.802;2022-09-25T10:44:56;4.18;;;3.38;;
34647;SDS011;20858;53.622;9.802;2022-09-25T10:50:17;4.45;;;3.33;;
34647;SDS011;20858;53.622;9.802;2022-09-25T10:52:54;6.25;;;3.42;;
34647;SDS011;20858;53.622;9.802;2022-09-25T10:55:34;5.72;;;3.25;;
34647;SDS011;20858;53.622;9.802;2022-09-25T11:00:36;4.55;;;2.92;;
34647;SDS011;20858;53.622;9.802;2022-09-25T11:03:07;8.02;;;2.85;;
34647;SDS011;20858;53.622;9.802;2022-09-25T11:05:48;4.22;;;2.45;;
34647;SDS011;20858;53.622;9.802;2022-09-25T11:08:16;3.15;;;2.92;;
34647;SDS011;20858;53.622;9.802;2022-09-25T11:10:52;3.65;;;2.58;;
34647;SDS011;20858;53.622;9.802;2022-09-25T11:13:23;3.47;;;2.80;;
34647;SDS011;20858;53.622;9.802;2022-09-25T11:15:57;4.57;;;2.35;;
34647;SDS011;20858;53.622;9.802;2022-09-25T11:21:16;12.38;;;7.05;;
34647;SDS011;20858;53.622;9.802;2022-09-25T11:27:03;3.97;;;3.10;;
34647;SDS011;20858;53.622;9.802;2022-09-25T11:32:24;3.90;;;2.55;;
34647;SDS011;20858;53.622;9.802;2022-09-25T11:35:19;12.30;;;2.72;;
34647;SDS011;20858;53.622;9.802;2022-09-25T11:40:25;2.38;;;2.17;;
34647;SDS011;20858;53.622;9.802;2022-09-25T11:43:12;2.83;;;2.53;;
34647;SDS011;20858;53.622;9.802;2022-09-25T11:48:15;4.82;;;3.35;;
34647;SDS011;20858;53.622;9.802;2022-09-25T11:53:57;8.63;;;5.47;;
34647;SDS011;20858;53.622;9.802;2022-09-25T12:02:36;5.72;;;5.10;;
34647;SDS011;20858;53.622;9.802;2022-09-25T12:12:50;5.60;;;3.40;;
34647;SDS011;20858;53.622;9.802;2022-09-25T12:21:19;5.15;;;3.63;;
34647;SDS011;20858;53.622;9.802;2022-09-25T12:32:08;3.95;;;3.10;;
34647;SDS011;20858;53.622;9.802;2022-09-25T12:39:51;5.60;;;2.95;;
34647;SDS011;20858;53.622;9.802;2022-09-25T12:50:28;6.43;;;3.70;;
34647;SDS011;20858;53.622;9.802;2022-09-25T12:53:01;4.50;;;2.85;;
34647;SDS011;20858;53.622;9.802;2022-09-25T12:55:29;6.55;;;3.67;;
34647;SDS011;20858;53.622;9.802;2022-09-25T12:58:21;6.90;;;2.75;;
34647;SDS011;20858;53.622;9.802;2022-09-25T13:01:08;8.60;;;3.35;;
34647;SDS011;20858;53.622;9.802;2022-09-25T13:03:45;4.63;;;2.67;;
34647;SDS011;20858;53.622;9.802;2022-09-25T13:09:24;5.32;;;3.20;;
34647;SDS011;20858;53.622;9.802;2022-09-25T13:12:02;3.53;;;2.38;;
34647;SDS011;20858;53.622;9.802;2022-09-25T13:14:36;6.70;;;3.10;;
34647;SDS011;20858;53.622;9.802;2022-09-25T13:17:10;3.92;;;2.42;;
34647;SDS011;20858;53.622;9.802;2022-09-25T13:19:37;10.98;;;2.30;;
34647;SDS011;20858;53.622;9.802;2022-09-25T13:22:07;3.78;;;2.17;;
34647;SDS011;20858;53.622;9.802;2022-09-25T13:24:47;3.92;;;1.90;;
34647;SDS011;20858;53.622;9.802;2022-09-25T13:27:18;5.25;;;2.33;;
34647;SDS011;20858;53.622;9.802;2022-09-25T13:29:51;7.43;;;2.05;;
34647;SDS011;20858;53.622;9.802;2022-09-25T13:32:20;2.55;;;1.80;;
34647;SDS011;20858;53.622;9.802;2022-09-25T13:34:50;4.72;;;1.77;;
34647;SDS011;20858;53.622;9.802;2022-09-25T13:39:49;2.55;;;1.35;;
34647;SDS011;20858;53.622;9.802;2022-09-25T13:42:34;7.05;;;3.03;;
34647;SDS011;20858;53.622;9.802;2022-09-25T13:58:16;9.77;;;6.90;;
34647;SDS011;20858;53.622;9.802;2022-09-25T14:03:27;9.07;;;5.77;;
34647;SDS011;20858;53.622;9.802;2022-09-25T14:05:57;9.68;;;5.93;;
34647;SDS011;20858;53.622;9.802;2022-09-25T14:08:23;6.85;;;5.80;;
34647;SDS011;20858;53.622;9.802;2022-09-25T14:10:52;7.85;;;5.22;;
34647;SDS011;20858;53.622;9.802;2022-09-25T14:13:21;16.67;;;5.47;;
34647;SDS011;20858;53.622;9.802;2022-09-25T14:15:49;11.98;;;5.78;;
34647;SDS011;20858;53.622;9.802;2022-09-25T14:21:14;7.03;;;3.95;;
34647;SDS011;20858;53.622;9.802;2022-09-25T14:23:48;8.10;;;4.68;;
34647;SDS011;20858;53.622;9.802;2022-09-25T14:26:19;5.78;;;4.75;;
34647;SDS011;20858;53.622;9.802;2022-09-25T14:28:49;12.48;;;3.83;;
34647;SDS011;20858;53.622;9.802;2022-09-25T14:34:12;3.92;;;3.22;;
34647;SDS011;20858;53.622;9.802;2022-09-25T14:39:45;4.07;;;3.60;;
34647;SDS011;20858;53.622;9.802;2022-09-25T14:47:38;8.32;;;2.22;;
34647;SDS011;20858;53.622;9.802;2022-09-25T14:50:19;5.60;;;2.93;;
34647;SDS011;20858;53.622;9.802;2022-09-25T14:52:51;4.25;;;2.40;;
34647;SDS011;20858;53.622;9.802;2022-09-25T14:55:24;4.20;;;2.45;;
34647;SDS011;20858;53.622;9.802;2022-09-25T14:57:58;6.97;;;2.83;;
34647;SDS011;20858;53.622;9.802;2022-09-25T15:00:25;4.30;;;2.22;;
34647;SDS011;20858;53.622;9.802;2022-09-25T15:02:53;4.18;;;2.38;;
34647;SDS011;20858;53.622;9.802;2022-09-25T15:05:28;4.43;;;2.50;;
34647;SDS011;20858;53.622;9.802;2022-09-25T15:07:56;5.68;;;2.28;;
34647;SDS011;20858;53.622;9.802;2022-09-25T15:10:25;2.22;;;2.03;;
34647;SDS011;20858;53.622;9.802;2022-09-25T15:12:50;7.60;;;2.78;;
34647;SDS011;20858;53.622;9.802;2022-09-25T15:15:16;3.30;;;2.28;;
34647;SDS011;20858;53.622;9.802;2022-09-25T15:17:50;7.90;;;2.78;;
34647;SDS011;20858;53.622;9.802;2022-09-25T15:20:21;9.00;;;5.32;;
34647;SDS011;20858;53.622;9.802;2022-09-25T15:22:53;7.45;;;4.22;;
34647;SDS011;20858;53.622;9.802;2022-09-25T15:25:26;7.90;;;5.32;;
34647;SDS011;20858;53.622;9.802;2022-09-25T15:27:56;12.00;;;6.30;;
34647;SDS011;20858;53.622;9.802;2022-09-25T15:30:24;12.85;;;6.88;;
34647;SDS011;20858;53.622;9.802;2022-09-25T15:32:51;9.43;;;6.22;;
34647;SDS011;20858;53.622;9.802;2022-09-25T15:35:22;7.72;;;6.03;;
34647;SDS011;20858;53.622;9.802;2022-09-25T15:37:55;5.85;;;5.13;;
34647;SDS011;20858;53.622;9.802;2022-09-25T15:40:26;8.02;;;6.10;;
34647;SDS011;20858;53.622;9.802;2022-09-25T15:42:54;5.32;;;4.82;;
34647;SDS011;20858;53.622;9.802;2022-09-25T15:45:32;8.85;;;5.28;;
34647;SDS011;20858;53.622;9.802;2022-09-25T15:48:01;7.18;;;5.28;;
34647;SDS011;20858;53.622;9.802;2022-09-25T15:50:36;10.10;;;4.47;;
34647;SDS011;20858;53.622;9.802;2022-09-25T15:53:13;6.78;;;4.28;;
34647;SDS011;20858;53.622;9.802;2022-09-25T15:56:02;5.75;;;4.63;;
34647;SDS011;20858;53.622;9.802;2022-09-25T15:58:44;4.60;;;3.42;;
34647;SDS011;20858;53.622;9.802;2022-09-25T16:01:13;8.65;;;4.43;;
34647;SDS011;20858;53.622;9.802;2022-09-25T16:04:00;7.55;;;3.67;;
34647;SDS011;20858;53.622;9.802;2022-09-25T16:06:44;5.22;;;4.20;;
34647;SDS011;20858;53.622;9.802;2022-09-25T16:09:21;6.72;;;3.88;;
34647;SDS011;20858;53.622;9.802;2022-09-25T16:12:09;4.15;;;3.10;;
34647;SDS011;20858;53.622;9.802;2022-09-25T16:14:35;5.23;;;2.93;;
34647;SDS011;20858;53.622;9.802;2022-09-25T16:17:01;7.60;;;3.25;;
34647;SDS011;20858;53.622;9.802;2022-09-25T16:19:31;2.90;;;2.60;;
34647;SDS011;20858;53.622;9.802;2022-09-25T16:21:58;10.32;;;3.20;;
34647;SDS011;20858;53.622;9.802;2022-09-25T16:24:36;4.70;;;3.10;;
34647;SDS011;20858;53.622;9.802;2022-09-25T16:27:02;3.00;;;2.75;;
34647;SDS011;20858;53.622;9.802;2022-09-25T16:29:29;6.18;;;2.70;;
34647;SDS011;20858;53.622;9.802;2022-09-25T16:31:59;3.10;;;2.80;;
34647;SDS011;20858;53.622;9.802;2022-09-25T16:34:28;9.52;;;2.88;;
34647;SDS011;20858;53.622;9.802;2022-09-25T16:37:01;5.32;;;2.85;;
34647;SDS011;20858;53.622;9.802;2022-09-25T16:39:33;3.65;;;2.25;;
34647;SDS011;20858;53.622;9.802;2022-09-25T16:42:22;6.25;;;2.80;;
34647;SDS011;20858;53.622;9.802;2022-09-25T16:44:46;4.10;;;2.53;;
34647;SDS011;20858;53.622;9.802;2022-09-25T16:47:14;4.70;;;3.20;;
34647;SDS011;20858;53.622;9.802;2022-09-25T16:49:42;5.03;;;2.97;;
34647;SDS011;20858;53.622;9.802;2022-09-25T16:52:09;3.67;;;2.67;;
34647;SDS011;20858;53.622;9.802;2022-09-25T16:54:44;4.40;;;3.05;;
34647;SDS011;20858;53.622;9.802;2022-09-25T16:57:19;3.83;;;2.35;;
34647;SDS011;20858;53.622;9.802;2022-09-25T16:59:45;3.47;;;2.20;;
34647;SDS011;20858;53.622;9.802;2022-09-25T17:02:30;2.90;;;2.25;;
34647;SDS011;20858;53.622;9.802;2022-09-25T17:05:22;2.17;;;1.95;;
34647;SDS011;20858;53.622;9.802;2022-09-25T17:07:51;5.30;;;2.63;;
34647;SDS011;20858;53.622;9.802;2022-09-25T17:10:22;3.53;;;2.72;;
34647;SDS011;20858;53.622;9.802;2022-09-25T17:12:50;2.83;;;2.30;;
34647;SDS011;20858;53.622;9.802;2022-09-25T17:15:24;1.85;;;1.70;;
34647;SDS011;20858;53.622;9.802;2022-09-25T17:17:56;3.08;;;2.25;;
34647;SDS011;20858;53.622;9.802;2022-09-25T17:20:24;3.33;;;2.50;;
34647;SDS011;20858;53.622;9.802;2022-09-25T17:22:50;4.97;;;2.17;;
34647;SDS011;20858;53.622;9.802;2022-09-25T17:26:03;3.35;;;2.22;;
34647;SDS011;20858;53.622;9.802;2022-09-25T17:28:09;4.85;;;1.98;;
34647;SDS011;20858;53.622;9.802;2022-09-25T17:30:35;4.65;;;2.50;;
34647;SDS011;20858;53.622;9.802;2022-09-25T17:33:01;2.00;;;1.52;;
34647;SDS011;20858;53.622;9.802;2022-09-25T17:37:59;4.50;;;2.38;;
34647;SDS011;20858;53.622;9.802;2022-09-25T17:40:25;4.50;;;1.75;;
34647;SDS011;20858;53.622;9.802;2022-09-25T17:42:52;2.13;;;1.92;;
34647;SDS011;20858;53.622;9.802;2022-09-25T17:45:24;6.70;;;2.03;;
34647;SDS011;20858;53.622;9.802;2022-09-25T17:47:54;1.70;;;1.60;;
34647;SDS011;20858;53.622;9.802;2022-09-25T17:50:20;4.03;;;2.33;;
34647;SDS011;20858;53.622;9.802;2022-09-25T17:52:49;8.00;;;2.13;;
34647;SDS011;20858;53.622;9.802;2022-09-25T17:55:16;7.25;;;3.42;;
34647;SDS011;20858;53.622;9.802;2022-09-25T17:57:43;5.13;;;3.38;;
34647;SDS011;20858;53.622;9.802;2022-09-25T18:00:09;8.18;;;3.53;;